createdAt,value
2023-04-08T00:00:29.694Z,9.20
2023-04-08T00:02:56.557Z,9.20
2023-04-08T00:17:39.286Z,9.10
2023-04-08T00:25:00.758Z,9.10
2023-04-08T00:29:54.567Z,9.10
2023-04-08T00:32:21.577Z,9.10
2023-04-08T00:34:48.332Z,9.20
2023-04-08T00:37:15.020Z,9.10
2023-04-08T00:39:41.726Z,9.10
2023-04-08T00:42:08.448Z,9.20
2023-04-08T00:49:31.369Z,9.10
2023-04-08T00:51:59.460Z,9.10
2023-04-08T00:54:26.490Z,9.10
2023-04-08T00:56:53.268Z,9.10
2023-04-08T01:02:23.710Z,9.10
2023-04-08T01:05:07.061Z,9.10
2023-04-08T01:07:49.243Z,9.10
2023-04-08T01:10:22.148Z,9.10
2023-04-08T01:12:53.240Z,9.10
2023-04-08T01:15:20.958Z,9.10
2023-04-08T01:17:50.345Z,9.10
2023-04-08T01:20:18.476Z,9.10
2023-04-08T01:23:01.388Z,9.10
2023-04-08T01:25:32.253Z,9.00
2023-04-08T01:28:01.841Z,9.10
2023-04-08T01:30:30.635Z,9.10
2023-04-08T01:32:58.899Z,9.00
2023-04-08T01:37:55.248Z,9.00
2023-04-08T01:40:22.212Z,9.00
2023-04-08T01:42:50.885Z,9.00
2023-04-08T01:47:49.439Z,9.00
2023-04-08T01:50:17.214Z,9.00
2023-04-08T01:52:46.116Z,9.00
2023-04-08T01:55:12.888Z,9.00
2023-04-08T01:57:41.631Z,9.00
2023-04-08T02:00:11.044Z,9.00
2023-04-08T02:02:38.888Z,9.00
2023-04-08T02:05:06.159Z,9.00
2023-04-08T02:07:32.968Z,9.00
2023-04-08T02:10:00.125Z,9.00
2023-04-08T02:12:28.231Z,9.00
2023-04-08T02:14:55.449Z,9.00
2023-04-08T02:17:38.575Z,9.00
2023-04-08T02:20:10.997Z,8.90
2023-04-08T02:22:50.626Z,8.90
2023-04-08T02:25:21.694Z,8.90
2023-04-08T02:27:49.249Z,8.90
2023-04-08T02:30:17.340Z,8.80
2023-04-08T02:32:45.698Z,8.90
2023-04-08T02:35:13.109Z,8.90
2023-04-08T02:40:29.063Z,8.90
2023-04-08T02:45:25.647Z,8.80
2023-04-08T02:52:46.711Z,8.80
2023-04-08T02:55:13.402Z,8.80
2023-04-08T02:57:42.098Z,8.80
2023-04-08T03:00:09.960Z,8.80
2023-04-08T03:05:05.527Z,8.80
2023-04-08T03:07:33.171Z,8.80
2023-04-08T03:10:00.084Z,8.80
2023-04-08T03:12:29.727Z,8.80
2023-04-08T03:14:56.414Z,8.80
2023-04-08T03:24:44.496Z,8.70
2023-04-08T03:27:12.616Z,8.80
2023-04-08T03:34:37.081Z,8.80
2023-04-08T03:37:03.812Z,8.80
2023-04-08T03:39:31.253Z,8.70
2023-04-08T03:41:59.852Z,8.70
2023-04-08T03:44:27.283Z,8.70
2023-04-08T03:46:53.996Z,8.70
2023-04-08T03:56:42.367Z,8.80
2023-04-08T04:01:36.185Z,8.70
2023-04-08T04:06:31.083Z,8.80
2023-04-08T04:08:57.740Z,8.70
2023-04-08T04:26:10.875Z,8.80
2023-04-08T04:31:05.330Z,8.80
2023-04-08T04:33:32.039Z,8.80
2023-04-08T04:38:27.064Z,8.80
2023-04-08T04:40:53.875Z,8.70
2023-04-08T04:45:47.670Z,8.70
2023-04-08T05:00:33.311Z,8.60
2023-04-08T05:03:00.547Z,8.60
2023-04-08T05:05:27.306Z,8.60
2023-04-08T05:10:21.392Z,8.70
2023-04-08T05:20:09.857Z,8.70
2023-04-08T05:27:31.403Z,8.70
2023-04-08T05:29:58.043Z,8.80
2023-04-08T05:34:51.897Z,8.80
2023-04-08T05:39:46.299Z,8.70
2023-04-08T05:44:43.784Z,8.80
2023-04-08T05:47:10.727Z,8.80
2023-04-08T05:49:37.392Z,8.70
2023-04-08T05:52:04.108Z,8.80
2023-04-08T05:54:30.802Z,8.80
2023-04-08T05:56:57.519Z,8.90
2023-04-08T05:59:24.302Z,8.90
2023-04-08T06:01:51.199Z,8.90
2023-04-08T06:04:18.071Z,9.00
2023-04-08T06:06:45.027Z,9.00
2023-04-08T06:09:11.781Z,9.00
2023-04-08T06:11:38.428Z,9.10
2023-04-08T06:14:05.243Z,9.10
2023-04-08T06:16:32.316Z,9.10
2023-04-08T06:18:59.135Z,9.10
2023-04-08T06:21:26.566Z,9.20
2023-04-08T06:23:53.442Z,9.20
2023-04-08T06:26:20.135Z,9.10
2023-04-08T06:28:46.808Z,9.30
2023-04-08T06:31:13.519Z,9.40
2023-04-08T06:33:40.301Z,9.40
2023-04-08T06:36:08.036Z,9.60
2023-04-08T06:38:35.195Z,9.60
2023-04-08T06:41:08.596Z,9.80
2023-04-08T06:43:36.562Z,9.90
2023-04-08T06:46:03.673Z,10.00
2023-04-08T06:48:30.894Z,10.00
2023-04-08T06:50:58.621Z,10.30
2023-04-08T06:53:26.107Z,10.30
2023-04-08T06:55:53.013Z,10.30
2023-04-08T06:58:19.731Z,10.40
2023-04-08T07:00:47.263Z,10.30
2023-04-08T07:03:14.143Z,10.10
2023-04-08T07:05:42.102Z,10.10
2023-04-08T07:08:09.483Z,10.00
2023-04-08T07:10:36.371Z,10.00
2023-04-08T07:13:03.457Z,10.00
2023-04-08T07:15:30.275Z,10.00
2023-04-08T07:17:58.660Z,9.90
2023-04-08T07:20:26.128Z,9.80
2023-04-08T07:22:52.893Z,9.90
2023-04-08T07:25:19.678Z,9.90
2023-04-08T07:27:46.490Z,10.30
2023-04-08T07:30:13.242Z,10.50
2023-04-08T07:32:40.205Z,10.50
2023-04-08T07:35:07.165Z,10.60
2023-04-08T07:37:33.939Z,10.80
2023-04-08T07:40:00.838Z,11.10
2023-04-08T07:42:27.634Z,11.10
2023-04-08T07:44:54.367Z,11.40
2023-04-08T07:47:21.122Z,11.20
2023-04-08T07:49:48.415Z,11.20
2023-04-08T07:52:15.684Z,11.00
2023-04-08T07:54:42.471Z,11.10
2023-04-08T07:57:09.126Z,11.20
2023-04-08T07:59:36.185Z,11.20
2023-04-08T08:02:03.351Z,11.10
2023-04-08T08:04:30.278Z,11.10
2023-04-08T08:06:57.148Z,11.10
2023-04-08T08:09:23.934Z,11.20
2023-04-08T08:11:50.769Z,11.50
2023-04-08T08:14:17.525Z,11.50
2023-04-08T08:16:44.618Z,11.70
2023-04-08T08:19:12.349Z,11.70
2023-04-08T08:21:39.606Z,11.80
2023-04-08T08:24:06.924Z,11.60
2023-04-08T08:26:37.097Z,11.40
2023-04-08T08:29:04.871Z,11.50
2023-04-08T08:31:31.690Z,11.40
2023-04-08T08:33:58.365Z,11.30
2023-04-08T08:36:25.030Z,11.20
2023-04-08T08:38:53.431Z,11.10
2023-04-08T08:41:23.182Z,11.00
2023-04-08T08:43:50.471Z,10.90
2023-04-08T08:46:19.165Z,10.90
2023-04-08T08:48:46.396Z,11.10
2023-04-08T08:51:13.900Z,11.20
2023-04-08T08:53:45.431Z,11.20
2023-04-08T08:58:42.532Z,11.30
2023-04-08T09:01:32.281Z,11.40
2023-04-08T09:04:11.490Z,11.60
2023-04-08T09:06:39.385Z,11.50
2023-04-08T09:09:10.183Z,11.30
2023-04-08T09:11:42.567Z,11.40
2023-04-08T09:14:25.034Z,11.50
2023-04-08T09:16:52.870Z,11.50
2023-04-08T09:19:20.324Z,11.40
2023-04-08T09:22:08.613Z,8.00
2023-04-08T09:24:37.080Z,11.50
2023-04-08T09:27:05.576Z,11.60
2023-04-08T09:29:35.254Z,11.60
2023-04-08T09:32:03.602Z,12.00
2023-04-08T09:34:32.377Z,11.90
2023-04-08T09:36:59.097Z,12.10
2023-04-08T09:39:25.956Z,12.00
2023-04-08T09:41:53.087Z,12.10
2023-04-08T09:44:21.744Z,12.10
2023-04-08T09:46:52.492Z,12.10
2023-04-08T09:49:33.856Z,12.30
2023-04-08T09:52:20.969Z,12.70
2023-04-08T09:54:53.536Z,12.70
2023-04-08T09:57:35.141Z,12.50
2023-04-08T10:00:09.815Z,12.40
2023-04-08T10:03:00.136Z,12.60
2023-04-08T10:05:27.890Z,12.80
2023-04-08T10:07:56.553Z,12.80
2023-04-08T10:10:23.871Z,13.10
2023-04-08T10:12:51.340Z,13.30
2023-04-08T10:15:28.012Z,13.50
2023-04-08T10:17:56.820Z,13.70
2023-04-08T10:20:38.662Z,13.40
2023-04-08T10:23:13.958Z,13.40
2023-04-08T10:25:41.999Z,13.40
2023-04-08T10:28:11.755Z,13.50
2023-04-08T10:30:38.395Z,13.10
2023-04-08T10:33:12.171Z,13.20
2023-04-08T10:35:47.538Z,13.20
2023-04-08T10:38:17.749Z,13.40
2023-04-08T10:40:45.922Z,13.40
2023-04-08T10:43:14.111Z,13.40
2023-04-08T10:45:41.957Z,13.50
2023-04-08T10:48:17.799Z,12.30
2023-04-08T10:50:58.069Z,13.30
2023-04-08T10:53:31.761Z,13.30
2023-04-08T10:56:08.000Z,13.50
2023-04-08T10:58:56.579Z,13.40
2023-04-08T11:01:23.424Z,12.90
2023-04-08T11:03:50.673Z,13.20
2023-04-08T11:06:18.248Z,13.30
2023-04-08T11:08:45.118Z,13.50
2023-04-08T11:11:12.251Z,13.30
2023-04-08T11:13:51.913Z,13.40
2023-04-08T11:16:20.888Z,13.40
2023-04-08T11:18:48.104Z,13.40
2023-04-08T11:21:16.724Z,13.40
2023-04-08T11:23:49.714Z,13.60
2023-04-08T11:26:16.966Z,13.50
2023-04-08T11:28:45.497Z,13.50
2023-04-08T11:31:13.525Z,13.40
2023-04-08T11:33:48.878Z,13.30
2023-04-08T11:36:18.282Z,13.20
2023-04-08T11:38:45.484Z,13.00
2023-04-08T11:41:12.192Z,11.50
2023-04-08T11:46:12.395Z,13.20
2023-04-08T11:48:39.751Z,13.20
2023-04-08T11:51:10.558Z,13.20
2023-04-08T11:53:40.058Z,13.20
2023-04-08T11:56:21.305Z,13.30
2023-04-08T11:58:48.268Z,13.20
2023-04-08T12:04:02.455Z,13.50
2023-04-08T12:06:29.710Z,13.60
2023-04-08T12:11:24.194Z,13.90
2023-04-08T12:13:51.310Z,14.00
2023-04-08T12:16:19.169Z,14.20
2023-04-08T12:21:13.616Z,13.50
2023-04-08T12:23:40.582Z,13.60
2023-04-08T12:26:07.992Z,13.70
2023-04-08T12:28:35.423Z,13.60
2023-04-08T12:33:30.603Z,13.80
2023-04-08T12:38:27.691Z,13.70
2023-04-08T12:43:23.529Z,13.50
2023-04-08T12:45:50.679Z,13.40
2023-04-08T12:50:44.737Z,13.20
2023-04-08T12:53:11.500Z,13.50
2023-04-08T12:55:38.284Z,13.70
2023-04-08T12:58:06.036Z,14.00
2023-04-08T13:03:00.053Z,14.10
2023-04-08T13:05:41.862Z,14.10
2023-04-08T13:10:37.513Z,14.50
2023-04-08T13:13:04.372Z,14.60
2023-04-08T13:15:31.186Z,14.30
2023-04-08T13:20:26.283Z,14.20
2023-04-08T13:22:53.594Z,13.80
2023-04-08T13:27:48.117Z,14.20
2023-04-08T13:32:42.225Z,13.90
2023-04-08T13:35:09.319Z,13.90
2023-04-08T13:37:36.759Z,13.80
2023-04-08T13:42:34.166Z,13.80
2023-04-08T13:45:01.356Z,14.00
2023-04-08T13:47:28.098Z,13.90
2023-04-08T13:49:54.798Z,13.60
2023-04-08T13:59:44.549Z,13.80
2023-04-08T14:04:40.163Z,13.90
2023-04-08T14:07:07.077Z,13.90
2023-04-08T14:09:33.929Z,13.70
2023-04-08T14:12:00.654Z,14.00
2023-04-08T14:14:27.356Z,14.20
2023-04-08T14:16:54.241Z,14.30
2023-04-08T14:19:21.245Z,14.40
2023-04-08T14:21:47.943Z,14.00
2023-04-08T14:26:42.332Z,14.20
2023-04-08T14:29:09.040Z,14.40
2023-04-08T14:31:36.506Z,14.30
2023-04-08T14:36:31.634Z,14.30
2023-04-08T14:41:28.264Z,14.40
2023-04-08T14:46:22.386Z,14.50
2023-04-08T14:48:49.474Z,14.40
2023-04-08T14:51:16.553Z,14.30
2023-04-08T14:53:43.345Z,14.10
2023-04-08T15:05:59.876Z,14.30
2023-04-08T15:10:53.882Z,14.40
2023-04-08T15:13:20.628Z,14.00
2023-04-08T15:15:47.426Z,14.10
2023-04-08T15:20:41.846Z,14.50
2023-04-08T15:23:08.655Z,14.70
2023-04-08T15:28:02.771Z,14.70
2023-04-08T15:33:05.080Z,14.20
2023-04-08T15:40:27.817Z,14.00
2023-04-08T15:47:49.086Z,13.70
2023-04-08T15:50:17.240Z,13.70
2023-04-08T15:52:44.482Z,13.70
2023-04-08T15:55:11.268Z,13.60
2023-04-08T15:57:38.008Z,13.60
2023-04-08T16:00:11.516Z,13.50
2023-04-08T16:02:38.543Z,13.50
2023-04-08T16:05:05.869Z,13.40
2023-04-08T16:09:59.789Z,13.60
2023-04-08T16:12:26.540Z,13.60
2023-04-08T16:14:53.260Z,13.50
2023-04-08T16:27:09.228Z,13.00
2023-04-08T16:32:03.764Z,12.80
2023-04-08T16:36:57.604Z,12.60
2023-04-08T16:41:51.445Z,12.40
2023-04-08T16:44:18.185Z,12.50
2023-04-08T16:49:14.493Z,12.60
2023-04-08T16:51:42.289Z,12.50
2023-04-08T16:56:36.209Z,12.30
2023-04-08T17:06:24.702Z,11.90
2023-04-08T17:08:51.788Z,11.80
2023-04-08T17:11:18.810Z,11.70
2023-04-08T17:16:17.894Z,11.50
2023-04-08T17:18:45.148Z,11.50
2023-04-08T17:21:14.043Z,11.30
2023-04-08T17:23:40.859Z,11.40
2023-04-08T17:26:08.741Z,11.30
2023-04-08T17:28:35.752Z,11.20
2023-04-08T17:33:29.745Z,11.10
2023-04-08T17:35:56.507Z,11.00
2023-04-08T17:45:45.929Z,11.00
2023-04-08T17:48:12.805Z,11.00
2023-04-08T17:50:39.521Z,10.90
2023-04-08T17:55:33.605Z,10.80
2023-04-08T17:58:00.432Z,10.80
2023-04-08T18:00:27.561Z,10.70
2023-04-08T18:02:54.517Z,10.60
2023-04-08T18:05:21.877Z,10.60
2023-04-08T18:07:48.805Z,10.50
2023-04-08T18:10:16.086Z,10.40
2023-04-08T18:12:42.867Z,10.30
2023-04-08T18:15:10.113Z,10.30
2023-04-08T18:17:37.026Z,10.20
2023-04-08T18:20:04.268Z,10.20
2023-04-08T18:22:31.159Z,10.20
2023-04-08T18:24:57.856Z,10.00
2023-04-08T18:27:24.615Z,9.90
2023-04-08T18:29:53.400Z,10.00
2023-04-08T18:32:20.288Z,9.90
2023-04-08T18:34:47.282Z,9.90
2023-04-08T18:37:17.001Z,9.90
2023-04-08T18:39:43.752Z,9.80
2023-04-08T18:42:10.578Z,9.80
2023-04-08T18:44:37.602Z,9.80
2023-04-08T18:47:04.636Z,9.80
2023-04-08T18:49:33.907Z,9.70
2023-04-08T18:52:02.993Z,9.70
2023-04-08T18:54:30.762Z,9.70
2023-04-08T18:56:58.130Z,9.60
2023-04-08T18:59:25.058Z,9.70
2023-04-08T19:01:51.956Z,9.50
2023-04-08T19:04:19.148Z,9.50
2023-04-08T19:06:45.938Z,9.40
2023-04-08T19:09:14.390Z,9.40
2023-04-08T19:11:41.552Z,9.40
2023-04-08T19:14:08.471Z,9.30
2023-04-08T19:16:35.364Z,9.30
2023-04-08T19:19:02.346Z,9.30
2023-04-08T19:21:31.224Z,9.20
2023-04-08T19:23:58.009Z,9.20
2023-04-08T19:26:24.862Z,9.20
2023-04-08T19:28:51.726Z,9.10
2023-04-08T19:31:20.166Z,9.10
2023-04-08T19:33:47.005Z,9.00
2023-04-08T19:36:13.936Z,9.00
2023-04-08T19:38:40.913Z,9.00
2023-04-08T19:41:07.643Z,9.00
2023-04-08T19:43:34.527Z,9.00
2023-04-08T19:46:02.471Z,9.00
2023-04-08T19:48:29.237Z,9.00
2023-04-08T19:50:56.274Z,9.00
2023-04-08T19:53:23.035Z,9.00
2023-04-08T19:55:50.033Z,9.00
2023-04-08T19:58:16.878Z,9.00
2023-04-08T20:00:43.752Z,9.10
2023-04-08T20:03:10.779Z,9.00
2023-04-08T20:05:37.989Z,8.90
2023-04-08T20:08:04.929Z,9.00
2023-04-08T20:10:31.713Z,9.00
2023-04-08T20:12:58.688Z,9.00
2023-04-08T20:15:25.667Z,9.10
2023-04-08T20:17:53.284Z,9.10
2023-04-08T20:20:20.488Z,9.20
2023-04-08T20:22:47.189Z,9.20
2023-04-08T20:25:13.931Z,9.20
2023-04-08T20:27:41.438Z,9.20
2023-04-08T20:30:09.301Z,9.30
2023-04-08T20:32:36.379Z,9.30
2023-04-08T20:35:04.714Z,9.30
2023-04-08T20:37:33.269Z,9.40
2023-04-08T20:40:00.147Z,9.40
2023-04-08T20:42:27.023Z,9.40
2023-04-08T20:44:53.836Z,9.50
2023-04-08T20:47:20.942Z,9.50
2023-04-08T20:49:48.169Z,9.40
2023-04-08T20:52:14.857Z,9.40
2023-04-08T20:54:41.724Z,9.50
2023-04-08T20:57:08.466Z,9.50
2023-04-08T20:59:35.497Z,9.40
2023-04-08T21:02:02.443Z,9.50
2023-04-08T21:04:29.325Z,9.50
2023-04-08T21:06:56.115Z,9.50
2023-04-08T21:09:22.912Z,9.50
2023-04-08T21:11:49.689Z,9.40
2023-04-08T21:14:16.571Z,9.30
2023-04-08T21:16:43.564Z,9.30
2023-04-08T21:19:10.525Z,9.30
2023-04-08T21:21:37.401Z,9.30
2023-04-08T21:24:06.857Z,9.30
2023-04-08T21:26:33.647Z,9.20
2023-04-08T21:29:00.592Z,9.30
2023-04-08T21:31:27.415Z,9.20
2023-04-08T21:33:54.479Z,9.30
2023-04-08T21:36:21.402Z,9.20
2023-04-08T21:38:48.136Z,9.20
2023-04-08T21:41:14.799Z,9.20
2023-04-08T21:43:41.705Z,9.20
2023-04-08T21:46:08.671Z,9.20
2023-04-08T21:48:35.441Z,9.20
2023-04-08T21:51:02.147Z,9.20
2023-04-08T21:53:28.816Z,9.20
2023-04-08T21:55:55.630Z,9.20
2023-04-08T21:58:22.371Z,9.20
2023-04-08T22:00:50.546Z,9.20
2023-04-08T22:03:17.459Z,9.10
2023-04-08T22:05:44.222Z,9.10
2023-04-08T22:08:11.521Z,9.10
2023-04-08T22:10:38.167Z,9.10
2023-04-08T22:13:04.893Z,9.00
2023-04-08T22:15:31.579Z,9.10
2023-04-08T22:17:58.837Z,9.20
2023-04-08T22:20:25.771Z,9.10
2023-04-08T22:22:53.339Z,9.10
2023-04-08T22:25:20.171Z,9.20
2023-04-08T22:27:46.824Z,9.20
2023-04-08T22:30:13.814Z,9.10
2023-04-08T22:32:40.538Z,9.10
2023-04-08T22:35:07.609Z,9.00
2023-04-08T22:37:34.354Z,8.90
2023-04-08T22:40:01.080Z,8.90
2023-04-08T22:42:27.965Z,8.90
2023-04-08T22:44:54.663Z,8.90
2023-04-08T22:47:21.515Z,8.90
2023-04-08T22:49:48.180Z,8.80
2023-04-08T22:52:14.904Z,8.70
2023-04-08T22:54:41.649Z,8.80
2023-04-08T22:57:08.300Z,8.50
2023-04-08T22:59:34.942Z,8.60
2023-04-08T23:02:02.015Z,8.50
2023-04-08T23:04:28.842Z,8.50
2023-04-08T23:06:55.544Z,8.40
2023-04-08T23:09:24.415Z,8.40
2023-04-08T23:11:51.077Z,8.30
2023-04-08T23:14:17.713Z,8.20
2023-04-08T23:16:44.418Z,8.20
2023-04-08T23:19:11.554Z,8.10
2023-04-08T23:21:38.286Z,8.10
2023-04-08T23:24:05.393Z,8.00
2023-04-08T23:26:32.234Z,8.60
2023-04-08T23:28:59.171Z,7.90
2023-04-08T23:31:25.958Z,7.90
2023-04-08T23:33:52.677Z,7.90
2023-04-08T23:36:19.374Z,7.80
2023-04-08T23:38:46.201Z,7.80
2023-04-08T23:41:12.906Z,7.70
2023-04-08T23:43:39.644Z,7.60
2023-04-08T23:46:06.370Z,7.60
2023-04-08T23:48:33.117Z,7.50
2023-04-08T23:50:59.889Z,7.40
2023-04-08T23:53:26.797Z,7.40
2023-04-08T23:55:53.597Z,7.40
2023-04-08T23:58:20.368Z,7.40
